sensor_id;sensor_type;location;lat;lon;timestamp;P1;durP1;ratioP1;P2;durP2;ratioP2
34920;SDS011;21128;50.016;20.002;2022-08-19T00:01:56;18.50;;;12.83;;
34920;SDS011;21128;50.016;20.002;2022-08-19T00:04:26;15.57;;;13.20;;
34920;SDS011;21128;50.016;20.002;2022-08-19T00:06:56;15.18;;;12.73;;
34920;SDS011;21128;50.016;20.002;2022-08-19T00:09:31;21.57;;;12.17;;
34920;SDS011;21128;50.016;20.002;2022-08-19T00:11:58;16.57;;;12.97;;
34920;SDS011;21128;50.016;20.002;2022-08-19T00:14:26;16.40;;;13.23;;
34920;SDS011;21128;50.016;20.002;2022-08-19T00:16:54;18.87;;;13.20;;
34920;SDS011;21128;50.016;20.002;2022-08-19T00:19:27;17.73;;;13.73;;
34920;SDS011;21128;50.016;20.002;2022-08-19T00:22:01;17.70;;;13.57;;
34920;SDS011;21128;50.016;20.002;2022-08-19T00:24:28;20.37;;;13.63;;
34920;SDS011;21128;50.016;20.002;2022-08-19T00:26:56;16.10;;;12.73;;
34920;SDS011;21128;50.016;20.002;2022-08-19T00:29:23;19.90;;;13.53;;
34920;SDS011;21128;50.016;20.002;2022-08-19T00:31:51;16.57;;;12.77;;
34920;SDS011;21128;50.016;20.002;2022-08-19T00:34:23;17.97;;;13.47;;
34920;SDS011;21128;50.016;20.002;2022-08-19T00:36:50;17.33;;;13.43;;
34920;SDS011;21128;50.016;20.002;2022-08-19T00:39:18;18.30;;;13.60;;
34920;SDS011;21128;50.016;20.002;2022-08-19T00:41:45;16.77;;;13.00;;
34920;SDS011;21128;50.016;20.002;2022-08-19T00:44:16;14.90;;;12.97;;
34920;SDS011;21128;50.016;20.002;2022-08-19T00:46:46;16.53;;;12.53;;
34920;SDS011;21128;50.016;20.002;2022-08-19T00:49:16;16.40;;;13.07;;
34920;SDS011;21128;50.016;20.002;2022-08-19T00:51:48;17.50;;;12.93;;
34920;SDS011;21128;50.016;20.002;2022-08-19T00:54:18;21.65;;;14.00;;
34920;SDS011;21128;50.016;20.002;2022-08-19T00:56:45;20.03;;;13.77;;
34920;SDS011;21128;50.016;20.002;2022-08-19T00:59:13;16.27;;;13.25;;
34920;SDS011;21128;50.016;20.002;2022-08-19T01:01:42;15.07;;;13.43;;
34920;SDS011;21128;50.016;20.002;2022-08-19T01:04:10;17.57;;;13.90;;
34920;SDS011;21128;50.016;20.002;2022-08-19T01:06:44;20.00;;;13.00;;
34920;SDS011;21128;50.016;20.002;2022-08-19T01:09:24;17.37;;;13.93;;
34920;SDS011;21128;50.016;20.002;2022-08-19T01:11:51;17.50;;;13.53;;
34920;SDS011;21128;50.016;20.002;2022-08-19T01:14:18;16.37;;;13.37;;
34920;SDS011;21128;50.016;20.002;2022-08-19T01:16:46;17.00;;;13.08;;
34920;SDS011;21128;50.016;20.002;2022-08-19T01:19:24;17.37;;;13.63;;
34920;SDS011;21128;50.016;20.002;2022-08-19T01:25:01;18.30;;;13.85;;
34920;SDS011;21128;50.016;20.002;2022-08-19T01:27:36;14.33;;;12.83;;
34920;SDS011;21128;50.016;20.002;2022-08-19T01:30:05;14.67;;;13.17;;
34920;SDS011;21128;50.016;20.002;2022-08-19T01:32:32;17.17;;;14.23;;
34920;SDS011;21128;50.016;20.002;2022-08-19T01:35:02;22.73;;;14.87;;
34920;SDS011;21128;50.016;20.002;2022-08-19T01:37:41;17.90;;;13.90;;
34920;SDS011;21128;50.016;20.002;2022-08-19T01:40:15;17.50;;;14.10;;
34920;SDS011;21128;50.016;20.002;2022-08-19T01:42:43;20.90;;;14.33;;
34920;SDS011;21128;50.016;20.002;2022-08-19T01:45:10;15.90;;;13.17;;
34920;SDS011;21128;50.016;20.002;2022-08-19T01:47:37;16.40;;;13.83;;
34920;SDS011;21128;50.016;20.002;2022-08-19T01:50:05;19.03;;;13.80;;
34920;SDS011;21128;50.016;20.002;2022-08-19T01:52:37;20.60;;;14.73;;
34920;SDS011;21128;50.016;20.002;2022-08-19T01:55:07;20.10;;;14.33;;
34920;SDS011;21128;50.016;20.002;2022-08-19T01:57:37;16.60;;;14.17;;
34920;SDS011;21128;50.016;20.002;2022-08-19T02:00:09;20.40;;;14.65;;
34920;SDS011;21128;50.016;20.002;2022-08-19T02:02:38;17.37;;;14.37;;
34920;SDS011;21128;50.016;20.002;2022-08-19T02:05:05;21.70;;;14.90;;
34920;SDS011;21128;50.016;20.002;2022-08-19T02:07:35;21.87;;;15.30;;
34920;SDS011;21128;50.016;20.002;2022-08-19T02:10:10;20.10;;;14.40;;
34920;SDS011;21128;50.016;20.002;2022-08-19T02:12:48;18.70;;;14.40;;
34920;SDS011;21128;50.016;20.002;2022-08-19T02:15:22;21.93;;;15.30;;
34920;SDS011;21128;50.016;20.002;2022-08-19T02:17:49;20.13;;;15.43;;
34920;SDS011;21128;50.016;20.002;2022-08-19T02:20:16;18.90;;;14.90;;
34920;SDS011;21128;50.016;20.002;2022-08-19T02:22:49;18.53;;;15.60;;
34920;SDS011;21128;50.016;20.002;2022-08-19T02:25:16;23.03;;;15.20;;
34920;SDS011;21128;50.016;20.002;2022-08-19T02:27:43;18.27;;;14.00;;
34920;SDS011;21128;50.016;20.002;2022-08-19T02:30:12;17.93;;;15.00;;
34920;SDS011;21128;50.016;20.002;2022-08-19T02:32:42;18.40;;;15.70;;
34920;SDS011;21128;50.016;20.002;2022-08-19T02:35:16;20.17;;;15.77;;
34920;SDS011;21128;50.016;20.002;2022-08-19T02:37:43;18.87;;;15.43;;
34920;SDS011;21128;50.016;20.002;2022-08-19T02:40:30;21.30;;;15.67;;
34920;SDS011;21128;50.016;20.002;2022-08-19T02:43:01;19.93;;;15.80;;
34920;SDS011;21128;50.016;20.002;2022-08-19T02:45:33;19.00;;;15.65;;
34920;SDS011;21128;50.016;20.002;2022-08-19T02:48:01;19.67;;;14.67;;
34920;SDS011;21128;50.016;20.002;2022-08-19T02:50:28;25.53;;;15.53;;
34920;SDS011;21128;50.016;20.002;2022-08-19T02:52:55;19.07;;;15.73;;
34920;SDS011;21128;50.016;20.002;2022-08-19T02:55:22;20.67;;;15.67;;
34920;SDS011;21128;50.016;20.002;2022-08-19T02:57:49;19.80;;;15.63;;
34920;SDS011;21128;50.016;20.002;2022-08-19T03:00:22;23.40;;;15.27;;
34920;SDS011;21128;50.016;20.002;2022-08-19T03:02:50;41.77;;;26.20;;
34920;SDS011;21128;50.016;20.002;2022-08-19T03:05:17;31.40;;;24.10;;
34920;SDS011;21128;50.016;20.002;2022-08-19T03:07:51;21.47;;;17.70;;
34920;SDS011;21128;50.016;20.002;2022-08-19T03:10:25;23.70;;;15.77;;
34920;SDS011;21128;50.016;20.002;2022-08-19T03:12:52;23.20;;;15.93;;
34920;SDS011;21128;50.016;20.002;2022-08-19T03:15:19;18.50;;;15.87;;
34920;SDS011;21128;50.016;20.002;2022-08-19T03:17:53;19.10;;;15.30;;
34920;SDS011;21128;50.016;20.002;2022-08-19T03:20:20;23.10;;;15.27;;
34920;SDS011;21128;50.016;20.002;2022-08-19T03:22:47;21.53;;;16.10;;
34920;SDS011;21128;50.016;20.002;2022-08-19T03:25:14;21.50;;;16.80;;
34920;SDS011;21128;50.016;20.002;2022-08-19T03:27:41;22.77;;;16.47;;
34920;SDS011;21128;50.016;20.002;2022-08-19T03:30:14;21.20;;;16.53;;
34920;SDS011;21128;50.016;20.002;2022-08-19T03:32:41;20.57;;;15.90;;
34920;SDS011;21128;50.016;20.002;2022-08-19T03:37:47;20.97;;;15.90;;
34920;SDS011;21128;50.016;20.002;2022-08-19T03:40:14;21.40;;;16.00;;
34920;SDS011;21128;50.016;20.002;2022-08-19T03:42:41;20.97;;;15.60;;
34920;SDS011;21128;50.016;20.002;2022-08-19T03:45:08;19.25;;;16.20;;
34920;SDS011;21128;50.016;20.002;2022-08-19T03:47:36;20.70;;;16.83;;
34920;SDS011;21128;50.016;20.002;2022-08-19T03:50:04;21.60;;;15.70;;
34920;SDS011;21128;50.016;20.002;2022-08-19T03:52:31;20.40;;;17.07;;
34920;SDS011;21128;50.016;20.002;2022-08-19T03:54:58;19.87;;;16.53;;
34920;SDS011;21128;50.016;20.002;2022-08-19T03:57:25;21.67;;;17.70;;
34920;SDS011;21128;50.016;20.002;2022-08-19T03:59:52;21.67;;;16.47;;
34920;SDS011;21128;50.016;20.002;2022-08-19T04:02:19;24.37;;;17.43;;
34920;SDS011;21128;50.016;20.002;2022-08-19T04:04:47;24.77;;;16.47;;
34920;SDS011;21128;50.016;20.002;2022-08-19T04:07:13;24.67;;;16.80;;
34920;SDS011;21128;50.016;20.002;2022-08-19T04:09:48;21.50;;;16.83;;
34920;SDS011;21128;50.016;20.002;2022-08-19T04:12:22;24.20;;;16.55;;
34920;SDS011;21128;50.016;20.002;2022-08-19T04:14:48;25.63;;;17.00;;
34920;SDS011;21128;50.016;20.002;2022-08-19T04:19:48;21.33;;;17.40;;
34920;SDS011;21128;50.016;20.002;2022-08-19T04:22:15;24.85;;;17.65;;
34920;SDS011;21128;50.016;20.002;2022-08-19T04:24:42;26.63;;;16.73;;
34920;SDS011;21128;50.016;20.002;2022-08-19T04:27:08;24.33;;;16.80;;
34920;SDS011;21128;50.016;20.002;2022-08-19T04:29:35;23.43;;;17.00;;
34920;SDS011;21128;50.016;20.002;2022-08-19T04:32:05;21.70;;;16.17;;
34920;SDS011;21128;50.016;20.002;2022-08-19T04:34:32;19.32;;;16.70;;
34920;SDS011;21128;50.016;20.002;2022-08-19T04:37:06;22.07;;;16.80;;
34920;SDS011;21128;50.016;20.002;2022-08-19T04:39:38;22.37;;;16.77;;
34920;SDS011;21128;50.016;20.002;2022-08-19T04:42:24;20.60;;;17.13;;
34920;SDS011;21128;50.016;20.002;2022-08-19T04:45:11;24.00;;;18.05;;
34920;SDS011;21128;50.016;20.002;2022-08-19T04:50:07;27.13;;;17.57;;
34920;SDS011;21128;50.016;20.002;2022-08-19T04:52:36;20.80;;;16.40;;
34920;SDS011;21128;50.016;20.002;2022-08-19T04:55:12;20.50;;;16.10;;
34920;SDS011;21128;50.016;20.002;2022-08-19T04:57:40;20.80;;;16.23;;
34920;SDS011;21128;50.016;20.002;2022-08-19T05:00:08;23.10;;;17.17;;
34920;SDS011;21128;50.016;20.002;2022-08-19T05:02:36;21.10;;;15.27;;
34920;SDS011;21128;50.016;20.002;2022-08-19T05:05:04;22.27;;;16.47;;
34920;SDS011;21128;50.016;20.002;2022-08-19T05:07:33;22.23;;;15.67;;
34920;SDS011;21128;50.016;20.002;2022-08-19T05:10:06;22.97;;;15.20;;
34920;SDS011;21128;50.016;20.002;2022-08-19T05:12:40;24.05;;;16.90;;
34920;SDS011;21128;50.016;20.002;2022-08-19T05:15:08;20.17;;;15.87;;
34920;SDS011;21128;50.016;20.002;2022-08-19T05:17:35;19.63;;;14.67;;
34920;SDS011;21128;50.016;20.002;2022-08-19T05:20:09;20.65;;;16.05;;
34920;SDS011;21128;50.016;20.002;2022-08-19T05:22:55;23.42;;;15.60;;
34920;SDS011;21128;50.016;20.002;2022-08-19T05:25:22;17.73;;;14.73;;
34920;SDS011;21128;50.016;20.002;2022-08-19T05:27:52;23.83;;;15.27;;
34920;SDS011;21128;50.016;20.002;2022-08-19T05:30:25;19.37;;;14.50;;
34920;SDS011;21128;50.016;20.002;2022-08-19T05:32:52;23.23;;;14.43;;
34920;SDS011;21128;50.016;20.002;2022-08-19T05:35:19;22.60;;;14.63;;
34920;SDS011;21128;50.016;20.002;2022-08-19T05:37:46;22.73;;;14.30;;
34920;SDS011;21128;50.016;20.002;2022-08-19T05:40:13;22.97;;;14.80;;
34920;SDS011;21128;50.016;20.002;2022-08-19T05:42:40;24.67;;;15.10;;
34920;SDS011;21128;50.016;20.002;2022-08-19T05:45:07;25.70;;;14.40;;
34920;SDS011;21128;50.016;20.002;2022-08-19T05:47:34;22.63;;;13.83;;
34920;SDS011;21128;50.016;20.002;2022-08-19T05:50:02;24.27;;;15.30;;
34920;SDS011;21128;50.016;20.002;2022-08-19T05:52:29;23.17;;;14.70;;
34920;SDS011;21128;50.016;20.002;2022-08-19T05:55:02;20.93;;;14.90;;
34920;SDS011;21128;50.016;20.002;2022-08-19T05:57:29;20.87;;;14.60;;
34920;SDS011;21128;50.016;20.002;2022-08-19T05:59:57;20.53;;;15.00;;
34920;SDS011;21128;50.016;20.002;2022-08-19T06:02:26;22.30;;;13.80;;
34920;SDS011;21128;50.016;20.002;2022-08-19T06:04:54;21.25;;;14.90;;
34920;SDS011;21128;50.016;20.002;2022-08-19T06:07:20;25.90;;;14.47;;
34920;SDS011;21128;50.016;20.002;2022-08-19T06:10:09;27.43;;;13.90;;
34920;SDS011;21128;50.016;20.002;2022-08-19T06:12:37;22.60;;;15.03;;
34920;SDS011;21128;50.016;20.002;2022-08-19T06:15:06;19.70;;;14.13;;
34920;SDS011;21128;50.016;20.002;2022-08-19T06:17:36;29.33;;;14.80;;
34920;SDS011;21128;50.016;20.002;2022-08-19T06:20:05;29.13;;;13.67;;
34920;SDS011;21128;50.016;20.002;2022-08-19T06:22:37;24.07;;;14.10;;
34920;SDS011;21128;50.016;20.002;2022-08-19T06:25:13;30.83;;;13.10;;
34920;SDS011;21128;50.016;20.002;2022-08-19T06:27:47;19.85;;;13.00;;
34920;SDS011;21128;50.016;20.002;2022-08-19T06:30:20;21.10;;;12.93;;
34920;SDS011;21128;50.016;20.002;2022-08-19T06:32:47;23.45;;;11.93;;
34920;SDS011;21128;50.016;20.002;2022-08-19T06:35:14;23.07;;;11.87;;
34920;SDS011;21128;50.016;20.002;2022-08-19T06:37:41;23.03;;;11.57;;
34920;SDS011;21128;50.016;20.002;2022-08-19T06:40:09;26.73;;;12.50;;
34920;SDS011;21128;50.016;20.002;2022-08-19T06:42:37;14.83;;;11.93;;
34920;SDS011;21128;50.016;20.002;2022-08-19T06:45:05;17.20;;;12.00;;
34920;SDS011;21128;50.016;20.002;2022-08-19T06:47:34;17.45;;;12.45;;
34920;SDS011;21128;50.016;20.002;2022-08-19T06:50:02;17.03;;;12.53;;
34920;SDS011;21128;50.016;20.002;2022-08-19T06:52:31;18.87;;;11.57;;
34920;SDS011;21128;50.016;20.002;2022-08-19T06:55:01;21.03;;;12.00;;
34920;SDS011;21128;50.016;20.002;2022-08-19T06:57:35;18.70;;;12.33;;
34920;SDS011;21128;50.016;20.002;2022-08-19T07:00:03;15.73;;;10.93;;
34920;SDS011;21128;50.016;20.002;2022-08-19T07:02:33;15.53;;;11.57;;
34920;SDS011;21128;50.016;20.002;2022-08-19T07:05:04;20.63;;;11.10;;
34920;SDS011;21128;50.016;20.002;2022-08-19T07:07:32;17.00;;;10.90;;
34920;SDS011;21128;50.016;20.002;2022-08-19T07:10:06;20.00;;;11.35;;
34920;SDS011;21128;50.016;20.002;2022-08-19T07:12:40;17.97;;;11.20;;
34920;SDS011;21128;50.016;20.002;2022-08-19T07:15:08;18.53;;;11.60;;
34920;SDS011;21128;50.016;20.002;2022-08-19T07:17:37;20.00;;;11.80;;
34920;SDS011;21128;50.016;20.002;2022-08-19T07:20:06;14.87;;;11.23;;
34920;SDS011;21128;50.016;20.002;2022-08-19T07:22:34;14.97;;;10.73;;
34920;SDS011;21128;50.016;20.002;2022-08-19T07:25:01;19.90;;;10.33;;
34920;SDS011;21128;50.016;20.002;2022-08-19T07:27:36;13.63;;;9.83;;
34920;SDS011;21128;50.016;20.002;2022-08-19T07:30:03;23.83;;;10.93;;
34920;SDS011;21128;50.016;20.002;2022-08-19T07:32:31;15.53;;;9.97;;
34920;SDS011;21128;50.016;20.002;2022-08-19T07:34:58;24.67;;;10.10;;
34920;SDS011;21128;50.016;20.002;2022-08-19T07:37:27;16.33;;;10.70;;
34920;SDS011;21128;50.016;20.002;2022-08-19T07:39:55;16.13;;;10.37;;
34920;SDS011;21128;50.016;20.002;2022-08-19T07:42:22;16.80;;;10.57;;
34920;SDS011;21128;50.016;20.002;2022-08-19T07:44:48;18.33;;;10.23;;
34920;SDS011;21128;50.016;20.002;2022-08-19T07:47:15;15.70;;;10.00;;
34920;SDS011;21128;50.016;20.002;2022-08-19T07:49:43;18.45;;;10.95;;
34920;SDS011;21128;50.016;20.002;2022-08-19T07:52:10;16.83;;;9.87;;
34920;SDS011;21128;50.016;20.002;2022-08-19T07:54:38;15.90;;;9.17;;
34920;SDS011;21128;50.016;20.002;2022-08-19T07:57:07;15.43;;;9.93;;
34920;SDS011;21128;50.016;20.002;2022-08-19T07:59:34;22.15;;;10.13;;
34920;SDS011;21128;50.016;20.002;2022-08-19T08:02:01;12.40;;;10.03;;
34920;SDS011;21128;50.016;20.002;2022-08-19T08:04:35;15.77;;;9.57;;
34920;SDS011;21128;50.016;20.002;2022-08-19T08:07:21;14.50;;;9.63;;
34920;SDS011;21128;50.016;20.002;2022-08-19T08:10:20;20.55;;;10.38;;
34920;SDS011;21128;50.016;20.002;2022-08-19T08:12:47;15.47;;;9.73;;
34920;SDS011;21128;50.016;20.002;2022-08-19T08:15:15;14.47;;;9.67;;
34920;SDS011;21128;50.016;20.002;2022-08-19T08:17:42;18.47;;;9.90;;
34920;SDS011;21128;50.016;20.002;2022-08-19T08:20:10;20.13;;;9.20;;
34920;SDS011;21128;50.016;20.002;2022-08-19T08:22:37;12.35;;;9.45;;
34920;SDS011;21128;50.016;20.002;2022-08-19T08:25:28;19.00;;;9.20;;
34920;SDS011;21128;50.016;20.002;2022-08-19T08:28:03;13.10;;;8.80;;
34920;SDS011;21128;50.016;20.002;2022-08-19T08:30:31;12.00;;;9.13;;
34920;SDS011;21128;50.016;20.002;2022-08-19T08:33:00;18.47;;;9.30;;
34920;SDS011;21128;50.016;20.002;2022-08-19T08:35:27;12.63;;;8.57;;
34920;SDS011;21128;50.016;20.002;2022-08-19T08:37:54;19.50;;;9.03;;
34920;SDS011;21128;50.016;20.002;2022-08-19T08:43:19;16.93;;;9.57;;
34920;SDS011;21128;50.016;20.002;2022-08-19T08:46:05;19.57;;;11.57;;
34920;SDS011;21128;50.016;20.002;2022-08-19T08:48:46;20.00;;;11.27;;
34920;SDS011;21128;50.016;20.002;2022-08-19T08:51:20;17.37;;;8.90;;
34920;SDS011;21128;50.016;20.002;2022-08-19T08:53:53;11.53;;;8.43;;
34920;SDS011;21128;50.016;20.002;2022-08-19T08:56:20;16.53;;;9.73;;
34920;SDS011;21128;50.016;20.002;2022-08-19T08:58:59;19.23;;;8.93;;
34920;SDS011;21128;50.016;20.002;2022-08-19T09:01:33;16.33;;;8.37;;
34920;SDS011;21128;50.016;20.002;2022-08-19T09:04:02;10.83;;;8.50;;
34920;SDS011;21128;50.016;20.002;2022-08-19T09:09:13;20.17;;;8.70;;
34920;SDS011;21128;50.016;20.002;2022-08-19T09:12:04;12.77;;;8.50;;
34920;SDS011;21128;50.016;20.002;2022-08-19T09:17:14;11.37;;;8.17;;
34920;SDS011;21128;50.016;20.002;2022-08-19T09:19:49;21.70;;;8.70;;
34920;SDS011;21128;50.016;20.002;2022-08-19T09:22:22;11.80;;;8.10;;
34920;SDS011;21128;50.016;20.002;2022-08-19T09:24:49;18.30;;;8.47;;
34920;SDS011;21128;50.016;20.002;2022-08-19T09:27:19;15.73;;;7.57;;
34920;SDS011;21128;50.016;20.002;2022-08-19T09:29:47;12.80;;;8.45;;
34920;SDS011;21128;50.016;20.002;2022-08-19T09:32:17;24.93;;;8.50;;
34920;SDS011;21128;50.016;20.002;2022-08-19T09:34:44;11.67;;;7.90;;
34920;SDS011;21128;50.016;20.002;2022-08-19T09:37:18;13.87;;;7.90;;
34920;SDS011;21128;50.016;20.002;2022-08-19T09:39:45;11.57;;;8.73;;
34920;SDS011;21128;50.016;20.002;2022-08-19T09:42:12;12.37;;;7.93;;
34920;SDS011;21128;50.016;20.002;2022-08-19T09:44:40;16.57;;;8.43;;
34920;SDS011;21128;50.016;20.002;2022-08-19T09:47:09;11.50;;;8.40;;
34920;SDS011;21128;50.016;20.002;2022-08-19T09:49:39;12.73;;;8.63;;
34920;SDS011;21128;50.016;20.002;2022-08-19T09:52:10;15.70;;;7.90;;
34920;SDS011;21128;50.016;20.002;2022-08-19T09:54:38;15.80;;;7.80;;
34920;SDS011;21128;50.016;20.002;2022-08-19T09:57:05;11.57;;;8.10;;
34920;SDS011;21128;50.016;20.002;2022-08-19T09:59:33;11.03;;;6.70;;
34920;SDS011;21128;50.016;20.002;2022-08-19T10:02:00;17.37;;;7.63;;
34920;SDS011;21128;50.016;20.002;2022-08-19T10:04:27;10.37;;;7.50;;
34920;SDS011;21128;50.016;20.002;2022-08-19T10:07:14;18.07;;;7.73;;
34920;SDS011;21128;50.016;20.002;2022-08-19T10:10:02;14.90;;;8.00;;
34920;SDS011;21128;50.016;20.002;2022-08-19T10:12:33;10.83;;;7.67;;
34920;SDS011;21128;50.016;20.002;2022-08-19T10:15:06;15.03;;;8.10;;
34920;SDS011;21128;50.016;20.002;2022-08-19T10:17:40;10.55;;;6.60;;
34920;SDS011;21128;50.016;20.002;2022-08-19T10:20:07;8.90;;;6.93;;
34920;SDS011;21128;50.016;20.002;2022-08-19T10:22:41;14.50;;;6.80;;
34920;SDS011;21128;50.016;20.002;2022-08-19T10:25:08;13.90;;;7.60;;
34920;SDS011;21128;50.016;20.002;2022-08-19T10:27:35;12.40;;;7.83;;
34920;SDS011;21128;50.016;20.002;2022-08-19T10:30:04;14.17;;;6.40;;
34920;SDS011;21128;50.016;20.002;2022-08-19T10:32:33;13.03;;;6.43;;
34920;SDS011;21128;50.016;20.002;2022-08-19T10:35:01;14.87;;;7.50;;
34920;SDS011;21128;50.016;20.002;2022-08-19T10:37:35;11.70;;;6.60;;
34920;SDS011;21128;50.016;20.002;2022-08-19T10:40:09;13.33;;;6.87;;
34920;SDS011;21128;50.016;20.002;2022-08-19T10:42:37;7.97;;;6.57;;
34920;SDS011;21128;50.016;20.002;2022-08-19T10:45:05;13.80;;;7.13;;
34920;SDS011;21128;50.016;20.002;2022-08-19T10:47:32;14.17;;;6.67;;
34920;SDS011;21128;50.016;20.002;2022-08-19T10:50:00;11.83;;;6.23;;
34920;SDS011;21128;50.016;20.002;2022-08-19T10:52:46;10.73;;;6.50;;
34920;SDS011;21128;50.016;20.002;2022-08-19T10:55:14;13.80;;;6.60;;
34920;SDS011;21128;50.016;20.002;2022-08-19T10:58:01;11.60;;;6.37;;
34920;SDS011;21128;50.016;20.002;2022-08-19T11:00:28;10.70;;;5.93;;
34920;SDS011;21128;50.016;20.002;2022-08-19T11:02:57;10.13;;;6.13;;
34920;SDS011;21128;50.016;20.002;2022-08-19T11:05:30;9.20;;;5.77;;
34920;SDS011;21128;50.016;20.002;2022-08-19T11:07:57;12.45;;;6.65;;
34920;SDS011;21128;50.016;20.002;2022-08-19T11:10:41;11.00;;;7.23;;
34920;SDS011;21128;50.016;20.002;2022-08-19T11:13:09;10.00;;;6.47;;
34920;SDS011;21128;50.016;20.002;2022-08-19T11:15:35;14.18;;;7.90;;
34920;SDS011;21128;50.016;20.002;2022-08-19T11:18:03;11.73;;;6.83;;
34920;SDS011;21128;50.016;20.002;2022-08-19T11:20:38;16.97;;;6.47;;
34920;SDS011;21128;50.016;20.002;2022-08-19T11:23:05;11.53;;;6.73;;
34920;SDS011;21128;50.016;20.002;2022-08-19T11:25:32;13.20;;;6.27;;
34920;SDS011;21128;50.016;20.002;2022-08-19T11:28:00;10.23;;;6.83;;
34920;SDS011;21128;50.016;20.002;2022-08-19T11:30:27;8.00;;;5.77;;
34920;SDS011;21128;50.016;20.002;2022-08-19T11:32:54;11.85;;;5.97;;
34920;SDS011;21128;50.016;20.002;2022-08-19T11:35:21;9.83;;;6.47;;
34920;SDS011;21128;50.016;20.002;2022-08-19T11:37:56;9.60;;;6.43;;
34920;SDS011;21128;50.016;20.002;2022-08-19T11:40:28;8.27;;;6.17;;
34920;SDS011;21128;50.016;20.002;2022-08-19T11:42:54;7.72;;;5.75;;
34920;SDS011;21128;50.016;20.002;2022-08-19T11:45:25;12.40;;;6.57;;
34920;SDS011;21128;50.016;20.002;2022-08-19T11:47:56;9.47;;;6.00;;
34920;SDS011;21128;50.016;20.002;2022-08-19T11:50:23;8.20;;;6.43;;
34920;SDS011;21128;50.016;20.002;2022-08-19T11:52:54;9.77;;;5.90;;
34920;SDS011;21128;50.016;20.002;2022-08-19T11:55:29;8.80;;;6.17;;
34920;SDS011;21128;50.016;20.002;2022-08-19T11:57:56;10.47;;;6.50;;
34920;SDS011;21128;50.016;20.002;2022-08-19T12:00:26;7.10;;;6.30;;
34920;SDS011;21128;50.016;20.002;2022-08-19T12:02:52;8.20;;;5.80;;
34920;SDS011;21128;50.016;20.002;2022-08-19T12:05:21;11.40;;;6.60;;
34920;SDS011;21128;50.016;20.002;2022-08-19T12:07:48;13.57;;;6.80;;
34920;SDS011;21128;50.016;20.002;2022-08-19T12:10:35;7.37;;;6.30;;
34920;SDS011;21128;50.016;20.002;2022-08-19T12:13:02;8.17;;;5.70;;
34920;SDS011;21128;50.016;20.002;2022-08-19T12:15:30;8.10;;;6.07;;
34920;SDS011;21128;50.016;20.002;2022-08-19T12:17:56;9.67;;;5.80;;
34920;SDS011;21128;50.016;20.002;2022-08-19T12:20:24;6.80;;;5.47;;
34920;SDS011;21128;50.016;20.002;2022-08-19T12:22:51;6.67;;;5.20;;
34920;SDS011;21128;50.016;20.002;2022-08-19T12:25:18;8.97;;;5.77;;
34920;SDS011;21128;50.016;20.002;2022-08-19T12:27:51;10.13;;;5.47;;
34920;SDS011;21128;50.016;20.002;2022-08-19T12:30:18;8.93;;;5.77;;
34920;SDS011;21128;50.016;20.002;2022-08-19T12:32:45;11.43;;;5.87;;
34920;SDS011;21128;50.016;20.002;2022-08-19T12:35:12;9.70;;;5.50;;
34920;SDS011;21128;50.016;20.002;2022-08-19T12:37:39;9.95;;;6.00;;
34920;SDS011;21128;50.016;20.002;2022-08-19T12:40:11;6.83;;;5.20;;
34920;SDS011;21128;50.016;20.002;2022-08-19T12:42:38;8.10;;;5.60;;
34920;SDS011;21128;50.016;20.002;2022-08-19T12:45:10;8.33;;;6.45;;
34920;SDS011;21128;50.016;20.002;2022-08-19T12:47:39;9.10;;;5.17;;
34920;SDS011;21128;50.016;20.002;2022-08-19T12:50:06;9.50;;;5.10;;
34920;SDS011;21128;50.016;20.002;2022-08-19T12:52:35;8.27;;;5.37;;
34920;SDS011;21128;50.016;20.002;2022-08-19T12:55:08;6.97;;;5.07;;
34920;SDS011;21128;50.016;20.002;2022-08-19T12:57:44;5.67;;;4.97;;
34920;SDS011;21128;50.016;20.002;2022-08-19T13:00:13;7.90;;;5.17;;
34920;SDS011;21128;50.016;20.002;2022-08-19T13:02:43;7.17;;;5.10;;
34920;SDS011;21128;50.016;20.002;2022-08-19T13:05:13;11.23;;;5.97;;
34920;SDS011;21128;50.016;20.002;2022-08-19T13:07:43;6.03;;;5.00;;
34920;SDS011;21128;50.016;20.002;2022-08-19T13:10:33;6.67;;;5.00;;
34920;SDS011;21128;50.016;20.002;2022-08-19T13:13:05;11.13;;;5.40;;
34920;SDS011;21128;50.016;20.002;2022-08-19T13:15:34;6.47;;;5.43;;
34920;SDS011;21128;50.016;20.002;2022-08-19T13:18:03;7.93;;;5.20;;
34920;SDS011;21128;50.016;20.002;2022-08-19T13:20:30;5.40;;;4.87;;
34920;SDS011;21128;50.016;20.002;2022-08-19T13:23:03;7.10;;;5.23;;
34920;SDS011;21128;50.016;20.002;2022-08-19T13:25:30;8.27;;;4.73;;
34920;SDS011;21128;50.016;20.002;2022-08-19T13:28:04;13.33;;;5.67;;
34920;SDS011;21128;50.016;20.002;2022-08-19T13:30:32;7.33;;;4.67;;
34920;SDS011;21128;50.016;20.002;2022-08-19T13:33:18;6.50;;;4.53;;
34920;SDS011;21128;50.016;20.002;2022-08-19T13:35:49;12.73;;;4.72;;
34920;SDS011;21128;50.016;20.002;2022-08-19T13:38:21;8.20;;;5.00;;
34920;SDS011;21128;50.016;20.002;2022-08-19T13:40:51;8.80;;;4.60;;
34920;SDS011;21128;50.016;20.002;2022-08-19T13:43:19;7.70;;;4.30;;
34920;SDS011;21128;50.016;20.002;2022-08-19T13:45:53;7.63;;;4.63;;
34920;SDS011;21128;50.016;20.002;2022-08-19T13:48:28;8.23;;;5.07;;
34920;SDS011;21128;50.016;20.002;2022-08-19T13:50:57;8.17;;;4.83;;
34920;SDS011;21128;50.016;20.002;2022-08-19T13:53:24;6.23;;;4.83;;
34920;SDS011;21128;50.016;20.002;2022-08-19T13:55:51;10.77;;;4.57;;
34920;SDS011;21128;50.016;20.002;2022-08-19T13:58:26;9.00;;;4.73;;
34920;SDS011;21128;50.016;20.002;2022-08-19T14:00:53;10.40;;;4.47;;
34920;SDS011;21128;50.016;20.002;2022-08-19T14:03:20;12.13;;;5.00;;
34920;SDS011;21128;50.016;20.002;2022-08-19T14:05:47;8.93;;;5.17;;
34920;SDS011;21128;50.016;20.002;2022-08-19T14:08:14;7.10;;;4.40;;
34920;SDS011;21128;50.016;20.002;2022-08-19T14:10:48;7.43;;;4.70;;
34920;SDS011;21128;50.016;20.002;2022-08-19T14:13:16;10.93;;;4.33;;
34920;SDS011;21128;50.016;20.002;2022-08-19T14:15:52;7.73;;;4.63;;
34920;SDS011;21128;50.016;20.002;2022-08-19T14:18:19;5.77;;;4.40;;
34920;SDS011;21128;50.016;20.002;2022-08-19T14:20:46;6.80;;;4.23;;
34920;SDS011;21128;50.016;20.002;2022-08-19T14:23:13;9.63;;;4.60;;
34920;SDS011;21128;50.016;20.002;2022-08-19T14:25:40;7.87;;;5.27;;
34920;SDS011;21128;50.016;20.002;2022-08-19T14:28:07;10.53;;;4.63;;
34920;SDS011;21128;50.016;20.002;2022-08-19T14:30:35;8.87;;;4.57;;
34920;SDS011;21128;50.016;20.002;2022-08-19T14:33:04;6.70;;;4.80;;
34920;SDS011;21128;50.016;20.002;2022-08-19T14:35:33;9.03;;;4.63;;
34920;SDS011;21128;50.016;20.002;2022-08-19T14:38:14;8.03;;;4.30;;
34920;SDS011;21128;50.016;20.002;2022-08-19T14:40:43;8.00;;;4.77;;
34920;SDS011;21128;50.016;20.002;2022-08-19T14:43:11;6.30;;;4.70;;
34920;SDS011;21128;50.016;20.002;2022-08-19T14:45:39;6.47;;;5.10;;
34920;SDS011;21128;50.016;20.002;2022-08-19T14:48:07;6.07;;;4.43;;
34920;SDS011;21128;50.016;20.002;2022-08-19T14:50:34;7.23;;;4.20;;
34920;SDS011;21128;50.016;20.002;2022-08-19T14:53:04;8.77;;;4.37;;
34920;SDS011;21128;50.016;20.002;2022-08-19T14:55:33;7.43;;;4.13;;